createdAt,value
2016-12-29T00:00:05.030Z,1025.48
2016-12-29T00:01:05.039Z,1025.47
2016-12-29T00:02:05.057Z,1025.48
2016-12-29T00:03:05.071Z,1025.47
2016-12-29T00:04:05.082Z,1025.48
2016-12-29T00:05:05.099Z,1025.46
2016-12-29T00:06:05.112Z,1025.46
2016-12-29T00:07:05.128Z,1025.49
2016-12-29T00:08:05.141Z,1025.45
2016-12-29T00:09:05.154Z,1025.46
2016-12-29T00:10:05.169Z,1025.42
2016-12-29T00:11:05.183Z,1025.39
2016-12-29T00:12:05.196Z,1025.44
2016-12-29T00:13:05.213Z,1025.44
2016-12-29T00:14:05.227Z,1025.48
2016-12-29T00:15:05.237Z,1025.46
2016-12-29T00:16:05.250Z,1025.48
2016-12-29T00:17:05.269Z,1025.47
2016-12-29T00:18:05.281Z,1025.41
2016-12-29T00:19:05.293Z,1025.45
2016-12-29T00:20:05.309Z,1025.35
2016-12-29T00:21:05.321Z,1025.38
2016-12-29T00:22:05.336Z,1025.41
2016-12-29T00:23:05.352Z,1025.4
2016-12-29T00:24:05.363Z,1025.4
2016-12-29T00:25:05.375Z,1025.4
2016-12-29T00:26:05.391Z,1025.42
2016-12-29T00:27:05.405Z,1025.37
2016-12-29T00:28:05.417Z,1025.38
2016-12-29T00:29:05.435Z,1025.36
2016-12-29T00:30:05.447Z,1025.37
2016-12-29T00:31:05.460Z,1025.35
2016-12-29T00:32:05.477Z,1025.3
2016-12-29T00:33:05.487Z,1025.3
2016-12-29T00:34:05.507Z,1025.26
2016-12-29T00:35:05.519Z,1025.33
2016-12-29T00:36:05.532Z,1025.32
2016-12-29T00:37:05.545Z,1025.32
2016-12-29T00:38:05.557Z,1025.32
2016-12-29T00:39:05.574Z,1025.28
2016-12-29T00:40:05.588Z,1025.25
2016-12-29T00:41:05.602Z,1025.21
2016-12-29T00:42:05.614Z,1025.2
2016-12-29T00:43:05.627Z,1025.18
2016-12-29T00:44:05.644Z,1025.19
2016-12-29T00:45:05.654Z,1025.24
2016-12-29T00:46:05.667Z,1025.17
2016-12-29T00:47:05.680Z,1025.21
2016-12-29T00:48:05.696Z,1025.22
2016-12-29T00:49:05.713Z,1025.21
2016-12-29T00:50:05.725Z,1025.22
2016-12-29T00:51:05.739Z,1025.19
2016-12-29T00:52:05.749Z,1025.2
2016-12-29T00:53:05.762Z,1025.2
2016-12-29T00:54:05.779Z,1025.2
2016-12-29T00:55:05.795Z,1025.2
2016-12-29T00:56:05.805Z,1025.23
2016-12-29T00:57:05.820Z,1025.26
2016-12-29T00:58:05.833Z,1025.27
2016-12-29T00:59:05.848Z,1025.25
2016-12-29T01:00:05.863Z,1025.26
2016-12-29T01:01:05.877Z,1025.19
2016-12-29T01:02:05.892Z,1025.22
2016-12-29T01:03:05.900Z,1025.21
2016-12-29T01:04:05.919Z,1025.2
2016-12-29T01:05:05.930Z,1025.16
2016-12-29T01:06:05.945Z,1025.17
2016-12-29T01:07:05.959Z,1025.21
2016-12-29T01:08:05.975Z,1025.15
2016-12-29T01:09:05.985Z,1025.15
2016-12-29T01:10:06.000Z,1025.14
2016-12-29T01:11:06.014Z,1025.12
2016-12-29T01:12:06.028Z,1025.11
2016-12-29T01:13:06.042Z,1025.06
2016-12-29T01:14:06.055Z,1025.08
2016-12-29T01:15:06.068Z,1025.04
2016-12-29T01:16:06.083Z,1025.02
2016-12-29T01:17:06.094Z,1025.03
2016-12-29T01:18:06.107Z,1025.01
2016-12-29T01:19:06.122Z,1025.01
2016-12-29T01:20:06.139Z,1025.06
2016-12-29T01:21:06.151Z,1025.03
2016-12-29T01:22:06.164Z,1025.04
2016-12-29T01:23:06.178Z,1025.09
2016-12-29T01:24:06.192Z,1025.05
2016-12-29T01:25:06.203Z,1025.07
2016-12-29T01:26:06.219Z,1025.06
2016-12-29T01:27:06.232Z,1025.04
2016-12-29T01:28:06.245Z,1025.04
2016-12-29T01:29:06.257Z,1025.03
2016-12-29T01:30:06.272Z,1025.05
2016-12-29T01:31:06.285Z,1025.08
2016-12-29T01:32:06.298Z,1025.03
2016-12-29T01:33:06.312Z,1025.01
2016-12-29T01:34:06.325Z,1025.04
2016-12-29T01:35:06.340Z,1024.98
2016-12-29T01:36:06.355Z,1025.01
2016-12-29T01:37:06.367Z,1024.98
2016-12-29T01:38:06.379Z,1024.96
2016-12-29T01:39:06.393Z,1024.95
2016-12-29T01:40:06.403Z,1024.96
2016-12-29T01:41:06.419Z,1024.95
2016-12-29T01:42:06.431Z,1024.97
2016-12-29T01:43:06.446Z,1024.98
2016-12-29T01:44:06.458Z,1025
2016-12-29T01:45:06.475Z,1024.95
2016-12-29T01:46:06.487Z,1024.97
2016-12-29T01:47:06.498Z,1024.97
2016-12-29T01:48:06.511Z,1024.96
2016-12-29T01:49:06.527Z,1024.95
2016-12-29T01:50:06.540Z,1024.92
2016-12-29T01:51:06.552Z,1024.91
2016-12-29T01:52:06.566Z,1024.89
2016-12-29T01:53:06.576Z,1024.89
2016-12-29T01:54:06.593Z,1024.93
2016-12-29T01:55:06.602Z,1024.9
2016-12-29T01:56:06.618Z,1024.96
2016-12-29T01:57:06.632Z,1024.99
2016-12-29T01:58:06.642Z,1024.99
2016-12-29T01:59:06.658Z,1025.02
2016-12-29T02:00:06.670Z,1024.98
2016-12-29T02:01:06.683Z,1025.06
2016-12-29T02:02:06.698Z,1025.02
2016-12-29T02:03:06.712Z,1024.96
2016-12-29T02:04:06.726Z,1025.01
2016-12-29T02:05:06.738Z,1024.95
2016-12-29T02:06:06.751Z,1024.95
2016-12-29T02:07:06.764Z,1024.92
2016-12-29T02:08:06.778Z,1024.96
2016-12-29T02:09:06.788Z,1024.97
2016-12-29T02:10:06.800Z,1025.03
2016-12-29T02:11:06.816Z,1024.96
2016-12-29T02:12:06.827Z,1024.95
2016-12-29T02:13:06.842Z,1024.94
2016-12-29T02:14:06.852Z,1024.92
2016-12-29T02:15:06.870Z,1024.89
2016-12-29T02:16:06.882Z,1024.92
2016-12-29T02:17:06.893Z,1024.84
2016-12-29T02:18:06.908Z,1024.87
2016-12-29T02:19:06.922Z,1024.91
2016-12-29T02:20:06.933Z,1024.89
2016-12-29T02:21:06.944Z,1024.9
2016-12-29T02:22:06.958Z,1024.88
2016-12-29T02:23:06.970Z,1024.94
2016-12-29T02:24:06.982Z,1024.92
2016-12-29T02:25:06.994Z,1024.9
2016-12-29T02:26:07.013Z,1024.85
2016-12-29T02:27:07.022Z,1024.91
2016-12-29T02:28:07.037Z,1024.89
2016-12-29T02:29:07.051Z,1024.86
2016-12-29T02:30:07.064Z,1024.85
2016-12-29T02:31:07.081Z,1024.8
2016-12-29T02:32:07.094Z,1024.78
2016-12-29T02:33:07.103Z,1024.72
2016-12-29T02:34:07.118Z,1024.76
2016-12-29T02:35:07.131Z,1024.71
2016-12-29T02:36:07.142Z,1024.69
2016-12-29T02:37:07.159Z,1024.7
2016-12-29T02:38:07.168Z,1024.71
2016-12-29T02:39:07.182Z,1024.69
2016-12-29T02:40:07.194Z,1024.75
2016-12-29T02:41:07.210Z,1024.76
2016-12-29T02:42:07.224Z,1024.75
2016-12-29T02:43:07.236Z,1024.77
2016-12-29T02:44:07.251Z,1024.76
2016-12-29T02:45:07.260Z,1024.76
2016-12-29T02:46:07.274Z,1024.77
2016-12-29T02:47:07.289Z,1024.75
2016-12-29T02:48:07.300Z,1024.8
2016-12-29T02:49:07.310Z,1024.79
2016-12-29T02:50:07.329Z,1024.73
2016-12-29T02:51:07.339Z,1024.71
2016-12-29T02:52:07.353Z,1024.74
2016-12-29T02:53:07.365Z,1024.7
2016-12-29T02:54:07.376Z,1024.71
2016-12-29T02:55:07.389Z,1024.72
2016-12-29T02:56:07.403Z,1024.75
2016-12-29T02:57:07.415Z,1024.77
2016-12-29T02:58:07.430Z,1024.76
2016-12-29T02:59:07.444Z,1024.75
2016-12-29T03:00:07.454Z,1024.78
2016-12-29T03:01:07.470Z,1024.8
2016-12-29T03:02:07.479Z,1024.78
2016-12-29T03:03:07.495Z,1024.76
2016-12-29T03:04:07.508Z,1024.78
2016-12-29T03:05:07.520Z,1024.76
2016-12-29T03:06:07.534Z,1024.73
2016-12-29T03:07:07.541Z,1024.74
2016-12-29T03:08:07.558Z,1024.79
2016-12-29T03:09:07.567Z,1024.8
2016-12-29T03:10:07.580Z,1024.77
2016-12-29T03:11:07.594Z,1024.76
2016-12-29T03:12:07.609Z,1024.73
2016-12-29T03:13:07.618Z,1024.72
2016-12-29T03:14:07.633Z,1024.69
2016-12-29T03:15:07.645Z,1024.71
2016-12-29T03:16:07.660Z,1024.79
2016-12-29T03:17:07.670Z,1024.74
2016-12-29T03:18:07.681Z,1024.77
2016-12-29T03:19:07.697Z,1024.75
2016-12-29T03:20:07.713Z,1024.74
2016-12-29T03:21:07.722Z,1024.71
2016-12-29T03:22:07.735Z,1024.66
2016-12-29T03:23:07.748Z,1024.66
2016-12-29T03:24:07.761Z,1024.57
2016-12-29T03:25:07.775Z,1024.6
2016-12-29T03:26:07.785Z,1024.6
2016-12-29T03:27:07.796Z,1024.63
2016-12-29T03:28:07.809Z,1024.65
2016-12-29T03:29:07.828Z,1024.63
2016-12-29T03:30:07.838Z,1024.62
2016-12-29T03:31:07.851Z,1024.57
2016-12-29T03:32:07.864Z,1024.57
2016-12-29T03:33:07.871Z,1024.59
2016-12-29T03:34:07.883Z,1024.54
2016-12-29T03:35:07.900Z,1024.57
2016-12-29T03:36:07.911Z,1024.55
2016-12-29T03:37:07.927Z,1024.56
2016-12-29T03:38:07.936Z,1024.54
2016-12-29T03:39:07.948Z,1024.54
2016-12-29T03:40:07.962Z,1024.46
2016-12-29T03:41:07.970Z,1024.52
2016-12-29T03:42:07.988Z,1024.52
2016-12-29T03:43:07.998Z,1024.49
2016-12-29T03:44:08.009Z,1024.5
2016-12-29T03:45:08.023Z,1024.56
2016-12-29T03:46:08.036Z,1024.53
2016-12-29T03:47:08.052Z,1024.51
2016-12-29T03:48:08.062Z,1024.52
2016-12-29T03:49:08.074Z,1024.47
2016-12-29T03:50:08.088Z,1024.5
2016-12-29T03:51:08.100Z,1024.47
2016-12-29T03:52:08.110Z,1024.45
2016-12-29T03:53:08.126Z,1024.44
2016-12-29T03:54:08.136Z,1024.52
2016-12-29T03:55:08.149Z,1024.51
2016-12-29T03:56:08.161Z,1024.54
2016-12-29T03:57:08.175Z,1024.52
2016-12-29T03:58:08.184Z,1024.53
2016-12-29T03:59:08.201Z,1024.55
2016-12-29T04:01:08.229Z,1024.56
2016-12-29T04:02:08.241Z,1024.5
2016-12-29T04:03:08.253Z,1024.44
2016-12-29T04:04:08.266Z,1024.46
2016-12-29T04:05:08.280Z,1024.42
2016-12-29T04:06:08.289Z,1024.4
2016-12-29T04:07:08.306Z,1024.39
2016-12-29T04:08:08.317Z,1024.38
2016-12-29T04:09:08.324Z,1024.41
2016-12-29T04:10:08.338Z,1024.37
2016-12-29T04:11:08.351Z,1024.45
2016-12-29T04:12:08.363Z,1024.44
2016-12-29T04:13:08.376Z,1024.41
2016-12-29T04:14:08.392Z,1024.44
2016-12-29T04:15:08.401Z,1024.41
2016-12-29T04:16:08.411Z,1024.45
2016-12-29T04:17:08.426Z,1024.43
2016-12-29T04:18:08.440Z,1024.42
2016-12-29T04:19:08.454Z,1024.43
2016-12-29T04:20:08.464Z,1024.41
2016-12-29T04:21:08.476Z,1024.47
2016-12-29T04:22:08.489Z,1024.47
2016-12-29T04:23:08.502Z,1024.46
2016-12-29T04:24:08.514Z,1024.49
2016-12-29T04:25:08.521Z,1024.46
2016-12-29T04:26:08.537Z,1024.49
2016-12-29T04:27:08.549Z,1024.49
2016-12-29T04:28:08.559Z,1024.47
2016-12-29T04:29:08.576Z,1024.44
2016-12-29T04:30:08.585Z,1024.47
2016-12-29T04:31:08.595Z,1024.47
2016-12-29T04:32:08.610Z,1024.43
2016-12-29T04:33:08.620Z,1024.42
2016-12-29T04:34:08.634Z,1024.49
2016-12-29T04:35:08.648Z,1024.42
2016-12-29T04:36:08.662Z,1024.42
2016-12-29T04:37:08.669Z,1024.45
2016-12-29T04:38:08.685Z,1024.44
2016-12-29T04:39:08.697Z,1024.44
2016-12-29T04:40:08.707Z,1024.39
2016-12-29T04:41:08.722Z,1024.42
2016-12-29T04:42:08.729Z,1024.46
2016-12-29T04:43:08.746Z,1024.45
2016-12-29T04:44:08.755Z,1024.46
2016-12-29T04:45:08.767Z,1024.48
2016-12-29T04:46:08.780Z,1024.49
2016-12-29T04:47:08.792Z,1024.41
2016-12-29T04:48:08.803Z,1024.44
2016-12-29T04:49:08.818Z,1024.44
2016-12-29T04:50:08.829Z,1024.46
2016-12-29T04:51:08.838Z,1024.47
2016-12-29T04:52:08.851Z,1024.45
2016-12-29T04:53:08.868Z,1024.41
2016-12-29T04:54:08.875Z,1024.41
2016-12-29T04:55:08.889Z,1024.38
2016-12-29T04:56:08.899Z,1024.35
2016-12-29T04:57:08.914Z,1024.41
2016-12-29T04:58:08.924Z,1024.36
2016-12-29T04:59:08.938Z,1024.39
2016-12-29T05:00:08.947Z,1024.4
2016-12-29T05:01:08.963Z,1024.42
2016-12-29T05:02:08.976Z,1024.44
2016-12-29T05:03:08.989Z,1024.42
2016-12-29T05:04:08.995Z,1024.45
2016-12-29T05:05:09.009Z,1024.5
2016-12-29T05:06:09.021Z,1024.5
2016-12-29T05:07:09.034Z,1024.52
2016-12-29T05:08:09.043Z,1024.54
2016-12-29T05:09:09.056Z,1024.54
2016-12-29T05:10:09.072Z,1024.51
2016-12-29T05:11:09.081Z,1024.56
2016-12-29T05:12:09.091Z,1024.52
2016-12-29T05:13:09.108Z,1024.52
2016-12-29T05:14:09.117Z,1024.49
2016-12-29T05:15:09.126Z,1024.51
2016-12-29T05:16:09.143Z,1024.53
2016-12-29T05:17:09.151Z,1024.48
2016-12-29T05:18:09.165Z,1024.52
2016-12-29T05:19:09.180Z,1024.48
2016-12-29T05:20:09.189Z,1024.48
2016-12-29T05:21:09.202Z,1024.42
2016-12-29T05:22:09.213Z,1024.4
2016-12-29T05:23:09.225Z,1024.4
2016-12-29T05:24:09.238Z,1024.37
2016-12-29T05:25:09.247Z,1024.36
2016-12-29T05:26:09.261Z,1024.36
2016-12-29T05:27:09.272Z,1024.34
2016-12-29T05:28:09.286Z,1024.37
2016-12-29T05:29:09.296Z,1024.33
2016-12-29T05:30:09.307Z,1024.33
2016-12-29T05:31:09.322Z,1024.32
2016-12-29T05:32:09.331Z,1024.32
2016-12-29T05:33:09.340Z,1024.33
2016-12-29T05:34:09.355Z,1024.34
2016-12-29T05:35:09.370Z,1024.31
2016-12-29T05:36:09.379Z,1024.25
2016-12-29T05:37:09.391Z,1024.25
2016-12-29T05:38:09.401Z,1024.22
2016-12-29T05:39:09.414Z,1024.26
2016-12-29T05:40:09.428Z,1024.26
2016-12-29T05:41:09.438Z,1024.25
2016-12-29T05:42:09.450Z,1024.23
2016-12-29T05:43:09.462Z,1024.22
2016-12-29T05:44:09.474Z,1024.23
2016-12-29T05:45:09.485Z,1024.2
2016-12-29T05:46:09.501Z,1024.25
2016-12-29T05:47:09.510Z,1024.26
2016-12-29T05:48:09.519Z,1024.28
2016-12-29T05:49:09.533Z,1024.29
2016-12-29T05:50:09.547Z,1024.32
2016-12-29T05:51:09.557Z,1024.25
2016-12-29T05:52:09.567Z,1024.28
2016-12-29T05:53:09.584Z,1024.27
2016-12-29T05:54:09.593Z,1024.24
2016-12-29T05:55:09.605Z,1024.21
2016-12-29T05:56:09.618Z,1024.23
2016-12-29T05:57:09.628Z,1024.21
2016-12-29T05:58:09.644Z,1024.19
2016-12-29T05:59:09.653Z,1024.24
2016-12-29T06:00:09.667Z,1024.26
2016-12-29T06:01:09.676Z,1024.25
2016-12-29T06:02:09.688Z,1024.27
2016-12-29T06:03:09.698Z,1024.29
2016-12-29T06:04:09.714Z,1024.3
2016-12-29T06:05:09.726Z,1024.31
2016-12-29T06:06:09.733Z,1024.3
2016-12-29T06:07:09.748Z,1024.33
2016-12-29T06:08:09.758Z,1024.34
2016-12-29T06:09:09.769Z,1024.35
2016-12-29T06:10:09.782Z,1024.36
2016-12-29T06:11:09.793Z,1024.34
2016-12-29T06:12:09.804Z,1024.35
2016-12-29T06:13:09.818Z,1024.32
2016-12-29T06:14:09.829Z,1024.35
2016-12-29T06:15:09.837Z,1024.37
2016-12-29T06:16:09.855Z,1024.34
2016-12-29T06:17:09.867Z,1024.43
2016-12-29T06:18:09.877Z,1024.35
2016-12-29T06:19:09.889Z,1024.38
2016-12-29T06:20:09.901Z,1024.42
2016-12-29T06:21:09.911Z,1024.38
2016-12-29T06:22:09.923Z,1024.38
2016-12-29T06:23:09.933Z,1024.37
2016-12-29T06:24:09.951Z,1024.38
2016-12-29T06:25:09.960Z,1024.34
2016-12-29T06:26:09.970Z,1024.35
2016-12-29T06:27:09.982Z,1024.36
2016-12-29T06:28:09.991Z,1024.34
2016-12-29T06:29:10.006Z,1024.37
2016-12-29T06:30:10.016Z,1024.32
2016-12-29T06:31:10.027Z,1024.34
2016-12-29T06:32:10.038Z,1024.33
2016-12-29T06:33:10.051Z,1024.36
2016-12-29T06:34:10.065Z,1024.36
2016-12-29T06:35:10.073Z,1024.37
2016-12-29T06:36:10.084Z,1024.37
2016-12-29T06:37:10.096Z,1024.38
2016-12-29T06:38:10.111Z,1024.35
2016-12-29T06:39:10.121Z,1024.41
2016-12-29T06:40:10.134Z,1024.34
2016-12-29T06:41:10.146Z,1024.37
2016-12-29T06:42:10.156Z,1024.37
2016-12-29T06:43:10.169Z,1024.36
2016-12-29T06:44:10.178Z,1024.4
2016-12-29T06:45:10.188Z,1024.39
2016-12-29T06:46:10.200Z,1024.44
2016-12-29T06:47:10.214Z,1024.48
2016-12-29T06:48:10.224Z,1024.47
2016-12-29T06:49:10.237Z,1024.49
2016-12-29T06:50:10.245Z,1024.48
2016-12-29T06:51:10.259Z,1024.52
2016-12-29T06:52:10.272Z,1024.49
2016-12-29T06:53:10.284Z,1024.45
2016-12-29T06:54:10.296Z,1024.45
2016-12-29T06:55:10.306Z,1024.39
2016-12-29T06:56:10.316Z,1024.34
2016-12-29T06:57:10.327Z,1024.36
2016-12-29T06:58:10.341Z,1024.34
2016-12-29T06:59:10.351Z,1024.35
2016-12-29T07:00:10.363Z,1024.34
2016-12-29T07:01:10.372Z,1024.32
2016-12-29T07:02:10.389Z,1024.31
2016-12-29T07:03:10.400Z,1024.32
2016-12-29T07:04:10.407Z,1024.31
2016-12-29T07:05:10.422Z,1024.34
2016-12-29T07:06:10.438Z,1024.36
2016-12-29T07:07:10.447Z,1024.34
2016-12-29T07:08:10.455Z,1024.36
2016-12-29T07:09:10.472Z,1024.35
2016-12-29T07:10:10.478Z,1024.34
2016-12-29T07:11:10.493Z,1024.35
2016-12-29T07:12:10.505Z,1024.33
2016-12-29T07:13:10.512Z,1024.31
2016-12-29T07:14:10.524Z,1024.27
2016-12-29T07:15:10.540Z,1024.31
2016-12-29T07:16:10.548Z,1024.29
2016-12-29T07:17:10.564Z,1024.26
2016-12-29T07:18:10.572Z,1024.28
2016-12-29T07:19:10.583Z,1024.3
2016-12-29T07:20:10.598Z,1024.28
2016-12-29T07:21:10.610Z,1024.32
2016-12-29T07:22:10.620Z,1024.33
2016-12-29T07:23:10.630Z,1024.33
2016-12-29T07:24:10.642Z,1024.32
2016-12-29T07:25:10.656Z,1024.3
2016-12-29T07:26:10.665Z,1024.3
2016-12-29T07:27:10.677Z,1024.28
2016-12-29T07:28:10.691Z,1024.27
2016-12-29T07:29:10.703Z,1024.27
2016-12-29T07:30:10.710Z,1024.31
2016-12-29T07:31:10.723Z,1024.29
2016-12-29T07:32:10.735Z,1024.29
2016-12-29T07:33:10.747Z,1024.36
2016-12-29T07:34:10.760Z,1024.36
2016-12-29T07:35:10.771Z,1024.33
2016-12-29T07:36:10.782Z,1024.33
2016-12-29T07:37:10.792Z,1024.36
2016-12-29T07:38:10.805Z,1024.34
2016-12-29T07:39:10.818Z,1024.32
2016-12-29T07:40:10.827Z,1024.31
2016-12-29T07:41:10.837Z,1024.31
2016-12-29T07:42:10.852Z,1024.3
2016-12-29T07:43:10.864Z,1024.37
2016-12-29T07:44:10.872Z,1024.33
2016-12-29T07:45:10.884Z,1024.35
2016-12-29T07:46:10.893Z,1024.3
2016-12-29T07:47:10.908Z,1024.33
2016-12-29T07:48:10.919Z,1024.29
2016-12-29T07:49:10.931Z,1024.31
2016-12-29T07:50:10.948Z,1024.29
2016-12-29T07:51:10.956Z,1024.31
2016-12-29T07:52:10.967Z,1024.28
2016-12-29T07:53:10.979Z,1024.28
2016-12-29T07:54:10.988Z,1024.22
2016-12-29T07:55:11.002Z,1024.27
2016-12-29T07:56:11.015Z,1024.28
2016-12-29T07:57:11.025Z,1024.26
2016-12-29T07:58:11.034Z,1024.26
2016-12-29T07:59:11.045Z,1024.23
2016-12-29T08:00:11.055Z,1024.18
2016-12-29T08:01:11.072Z,1024.23
2016-12-29T08:02:11.084Z,1024.21
2016-12-29T08:03:11.090Z,1024.24
2016-12-29T08:04:11.106Z,1024.28
2016-12-29T08:05:11.120Z,1024.25
2016-12-29T08:06:11.129Z,1024.23
2016-12-29T08:07:11.140Z,1024.23
2016-12-29T08:08:11.151Z,1024.25
2016-12-29T08:09:11.164Z,1024.24
2016-12-29T08:10:11.176Z,1024.24
2016-12-29T08:11:11.183Z,1024.24
2016-12-29T08:12:11.198Z,1024.2
2016-12-29T08:13:11.208Z,1024.22
2016-12-29T08:14:11.221Z,1024.23
2016-12-29T08:15:11.233Z,1024.25
2016-12-29T08:16:11.245Z,1024.22
2016-12-29T08:17:11.258Z,1024.22
2016-12-29T08:18:11.268Z,1024.25
2016-12-29T08:19:11.282Z,1024.27
2016-12-29T08:20:11.290Z,1024.27
2016-12-29T08:21:11.303Z,1024.27
2016-12-29T08:22:11.314Z,1024.23
2016-12-29T08:23:11.329Z,1024.24
2016-12-29T08:24:11.335Z,1024.24
2016-12-29T08:25:11.348Z,1024.27
2016-12-29T08:26:11.363Z,1024.27
2016-12-29T08:27:11.373Z,1024.24
2016-12-29T08:28:11.383Z,1024.26
2016-12-29T08:29:11.398Z,1024.29
2016-12-29T08:30:11.408Z,1024.29
2016-12-29T08:31:11.422Z,1024.29
2016-12-29T08:32:11.431Z,1024.28
2016-12-29T08:33:11.444Z,1024.32
2016-12-29T08:34:11.456Z,1024.29
2016-12-29T08:35:11.466Z,1024.31
2016-12-29T08:36:11.483Z,1024.29
2016-12-29T08:37:11.494Z,1024.33
2016-12-29T08:38:11.502Z,1024.28
2016-12-29T08:39:11.517Z,1024.28
2016-12-29T08:40:11.526Z,1024.27
2016-12-29T08:41:11.541Z,1024.3
2016-12-29T08:42:11.552Z,1024.3
2016-12-29T08:43:11.563Z,1024.34
2016-12-29T08:44:11.576Z,1024.29
2016-12-29T08:45:11.591Z,1024.3
2016-12-29T08:46:11.600Z,1024.23
2016-12-29T08:47:11.612Z,1024.23
2016-12-29T08:48:11.624Z,1024.26
2016-12-29T08:49:11.639Z,1024.23
2016-12-29T08:50:11.652Z,1024.21
2016-12-29T08:51:11.657Z,1024.2
2016-12-29T08:52:11.671Z,1024.21
2016-12-29T08:53:11.687Z,1024.23
2016-12-29T08:54:11.700Z,1024.23
2016-12-29T08:55:11.712Z,1024.21
2016-12-29T08:56:11.724Z,1024.23
2016-12-29T08:57:11.736Z,1024.19
2016-12-29T08:58:11.749Z,1024.18
2016-12-29T08:59:11.758Z,1024.21
2016-12-29T09:00:11.777Z,1024.23
2016-12-29T09:01:11.784Z,1024.22
2016-12-29T09:02:11.800Z,1024.19
2016-12-29T09:03:11.811Z,1024.18
2016-12-29T09:04:11.823Z,1024.12
2016-12-29T09:05:11.836Z,1024.17
2016-12-29T09:06:11.849Z,1024.12
2016-12-29T09:07:11.865Z,1024.14
2016-12-29T09:08:11.876Z,1024.12
2016-12-29T09:09:11.889Z,1024.11
2016-12-29T09:10:11.905Z,1024.19
2016-12-29T09:11:11.912Z,1024.13
2016-12-29T09:12:11.926Z,1024.15
2016-12-29T09:13:11.940Z,1024.15
2016-12-29T09:14:11.956Z,1024.11
2016-12-29T09:15:11.967Z,1024.11
2016-12-29T09:16:11.975Z,1024.12
2016-12-29T09:17:11.991Z,1024.1
2016-12-29T09:18:12.001Z,1024.13
2016-12-29T09:19:12.021Z,1024.16
2016-12-29T09:20:12.027Z,1024.14
2016-12-29T09:21:12.041Z,1024.17
2016-12-29T09:22:12.058Z,1024.14
2016-12-29T09:23:12.066Z,1024.14
2016-12-29T09:24:12.084Z,1024.1
2016-12-29T09:25:12.099Z,1024.1
2016-12-29T09:26:12.109Z,1024.11
2016-12-29T09:27:12.118Z,1024.08
2016-12-29T09:28:12.134Z,1024.11
2016-12-29T09:29:12.149Z,1024.06
2016-12-29T09:30:12.163Z,1024.1
2016-12-29T09:31:12.174Z,1024.09
2016-12-29T09:32:12.189Z,1024.09
2016-12-29T09:33:12.201Z,1024.06
2016-12-29T09:34:12.216Z,1024.08
2016-12-29T09:35:12.227Z,1024.08
2016-12-29T09:36:12.240Z,1024.08
2016-12-29T09:37:12.255Z,1024.05
2016-12-29T09:38:12.267Z,1024.06
2016-12-29T09:39:12.281Z,1024.07
2016-12-29T09:40:12.294Z,1024.08
2016-12-29T09:41:12.307Z,1024.07
2016-12-29T09:42:12.317Z,1024.07
2016-12-29T09:43:12.334Z,1024.07
2016-12-29T09:44:12.345Z,1024.03
2016-12-29T09:45:12.361Z,1024
2016-12-29T09:46:12.373Z,1024
2016-12-29T09:47:12.386Z,1023.96
2016-12-29T09:48:12.401Z,1023.97
2016-12-29T09:49:12.414Z,1023.98
2016-12-29T09:50:12.428Z,1023.93
2016-12-29T09:51:12.442Z,1023.98
2016-12-29T09:52:12.454Z,1023.96
2016-12-29T09:53:12.468Z,1023.92
2016-12-29T09:54:12.480Z,1023.94
2016-12-29T09:55:12.496Z,1023.95
2016-12-29T09:56:12.510Z,1023.96
2016-12-29T09:57:12.526Z,1023.96
2016-12-29T09:58:12.539Z,1023.97
2016-12-29T09:59:12.552Z,1024.01
2016-12-29T10:00:12.561Z,1023.98
2016-12-29T10:01:12.576Z,1023.96
2016-12-29T10:02:12.588Z,1023.96
2016-12-29T10:03:12.606Z,1023.99
2016-12-29T10:04:12.617Z,1023.9
2016-12-29T10:05:12.632Z,1023.88
2016-12-29T10:06:12.643Z,1023.84
2016-12-29T10:07:12.657Z,1023.86
2016-12-29T10:08:12.672Z,1023.83
2016-12-29T10:09:12.688Z,1023.81
2016-12-29T10:10:12.703Z,1023.75
2016-12-29T10:11:12.716Z,1023.76
2016-12-29T10:12:12.726Z,1023.75
2016-12-29T10:13:12.742Z,1023.76
2016-12-29T10:14:12.756Z,1023.73
2016-12-29T10:15:12.772Z,1023.71
2016-12-29T10:16:12.785Z,1023.71
2016-12-29T10:17:12.795Z,1023.72
2016-12-29T10:18:12.808Z,1023.72
2016-12-29T10:19:12.826Z,1023.69
2016-12-29T10:20:12.838Z,1023.74
2016-12-29T10:21:12.855Z,1023.74
2016-12-29T10:22:12.866Z,1023.76
2016-12-29T10:23:12.881Z,1023.74
2016-12-29T10:24:12.894Z,1023.78
2016-12-29T10:25:12.906Z,1023.78
2016-12-29T10:26:12.923Z,1023.8
2016-12-29T10:27:12.938Z,1023.78
2016-12-29T10:28:12.950Z,1023.84
2016-12-29T10:29:12.966Z,1023.8
2016-12-29T10:30:12.978Z,1023.82
2016-12-29T10:31:12.993Z,1023.77
2016-12-29T10:32:13.008Z,1023.81
2016-12-29T10:33:13.021Z,1023.77
2016-12-29T10:34:13.035Z,1023.81
2016-12-29T10:35:13.049Z,1023.77
2016-12-29T10:36:13.064Z,1023.77
2016-12-29T10:37:13.077Z,1023.82
2016-12-29T10:38:13.092Z,1023.83
2016-12-29T10:39:13.109Z,1023.78
2016-12-29T10:40:13.123Z,1023.81
2016-12-29T10:41:13.133Z,1023.84
2016-12-29T10:42:13.148Z,1023.8
2016-12-29T10:43:13.162Z,1023.82
2016-12-29T10:44:13.177Z,1023.77
2016-12-29T10:45:13.194Z,1023.78
2016-12-29T10:46:13.206Z,1023.75
2016-12-29T10:47:13.223Z,1023.76
2016-12-29T10:48:13.240Z,1023.73
2016-12-29T10:49:13.249Z,1023.76
2016-12-29T10:50:13.265Z,1023.76
2016-12-29T10:51:13.277Z,1023.78
2016-12-29T10:52:13.293Z,1023.81
2016-12-29T10:53:13.307Z,1023.83
2016-12-29T10:54:13.317Z,1023.87
2016-12-29T10:55:13.335Z,1023.81
2016-12-29T10:56:13.348Z,1023.86
2016-12-29T10:57:13.365Z,1023.81
2016-12-29T10:58:13.376Z,1023.77
2016-12-29T10:59:13.391Z,1023.72
2016-12-29T11:00:13.404Z,1023.72
2016-12-29T11:01:13.423Z,1023.72
2016-12-29T11:02:13.437Z,1023.7
2016-12-29T11:03:13.448Z,1023.72
2016-12-29T11:04:13.463Z,1023.71
2016-12-29T11:05:13.478Z,1023.68
2016-12-29T11:06:13.493Z,1023.7
2016-12-29T11:07:13.507Z,1023.67
2016-12-29T11:08:13.524Z,1023.67
2016-12-29T11:09:13.533Z,1023.66
2016-12-29T11:10:13.549Z,1023.63
2016-12-29T11:11:13.565Z,1023.63
2016-12-29T11:12:13.576Z,1023.63
2016-12-29T11:13:13.596Z,1023.56
2016-12-29T11:14:13.609Z,1023.59
2016-12-29T11:15:13.622Z,1023.54
2016-12-29T11:16:13.635Z,1023.56
2016-12-29T11:17:13.652Z,1023.58
2016-12-29T11:18:13.666Z,1023.59
2016-12-29T11:19:13.678Z,1023.57
2016-12-29T11:20:13.693Z,1023.53
2016-12-29T11:21:13.709Z,1023.5
2016-12-29T11:22:13.722Z,1023.46
2016-12-29T11:23:13.735Z,1023.42
2016-12-29T11:24:13.751Z,1023.4
2016-12-29T11:25:13.765Z,1023.44
2016-12-29T11:26:13.777Z,1023.42
2016-12-29T11:27:13.798Z,1023.43
2016-12-29T11:28:13.811Z,1023.46
2016-12-29T11:29:13.823Z,1023.45
2016-12-29T11:30:13.837Z,1023.49
2016-12-29T11:31:13.888Z,1023.52
2016-12-29T11:32:13.915Z,1023.52
2016-12-29T11:33:13.932Z,1023.49
2016-12-29T11:34:13.946Z,1023.47
2016-12-29T11:35:13.914Z,1023.46
2016-12-29T11:36:13.926Z,1023.42
2016-12-29T11:37:13.951Z,1023.42
2016-12-29T11:38:13.957Z,1023.44
2016-12-29T11:39:13.970Z,1023.44
2016-12-29T11:40:13.984Z,1023.41
2016-12-29T11:41:13.995Z,1023.39
2016-12-29T11:42:14.008Z,1023.38
2016-12-29T11:43:14.025Z,1023.4
2016-12-29T11:44:14.038Z,1023.34
2016-12-29T11:45:14.056Z,1023.38
2016-12-29T11:46:14.068Z,1023.34
2016-12-29T11:47:14.081Z,1023.33
2016-12-29T11:48:14.098Z,1023.27
2016-12-29T11:49:14.114Z,1023.29
2016-12-29T11:50:14.128Z,1023.24
2016-12-29T11:51:14.144Z,1023.26
2016-12-29T11:52:14.157Z,1023.21
2016-12-29T11:53:14.170Z,1023.2
2016-12-29T11:54:14.188Z,1023.17
2016-12-29T11:55:14.200Z,1023.12
2016-12-29T11:56:14.214Z,1023.09
2016-12-29T11:57:14.230Z,1023.05
2016-12-29T11:58:14.244Z,1022.98
2016-12-29T11:59:14.260Z,1023.01
2016-12-29T12:00:14.277Z,1022.99
2016-12-29T12:01:14.289Z,1022.98
2016-12-29T12:02:14.304Z,1022.99
2016-12-29T12:03:14.319Z,1023
2016-12-29T12:04:14.328Z,1022.95
2016-12-29T12:05:14.349Z,1022.97
2016-12-29T12:06:14.358Z,1022.99
2016-12-29T12:07:14.375Z,1022.96
2016-12-29T12:08:14.389Z,1022.94